sensor_id;sensor_type;location;lat;lon;timestamp;pressure;altitude;pressure_sealevel;temperature;humidity
36932;BME280;22847;42.654;23.370;2023-03-16T00:00:03;93810.34;;;6.17;72.51
36932;BME280;22847;42.654;23.370;2023-03-16T00:02:29;93833.78;;;5.77;73.61
36932;BME280;22847;42.654;23.370;2023-03-16T00:04:54;93518.63;;;4.14;73.78
36932;BME280;22847;42.654;23.370;2023-03-16T00:07:20;93578.66;;;4.35;73.60
36932;BME280;22847;42.654;23.370;2023-03-16T00:09:45;93807.09;;;5.76;73.32
36932;BME280;22847;42.654;23.370;2023-03-16T00:12:14;93591.41;;;4.46;73.47
36932;BME280;22847;42.654;23.370;2023-03-16T00:14:46;93629.75;;;4.41;73.93
36932;BME280;22847;42.654;23.370;2023-03-16T00:17:16;93597.81;;;4.42;73.26
36932;BME280;22847;42.654;23.370;2023-03-16T00:19:50;93684.81;;;4.89;74.05
36932;BME280;22847;42.654;23.370;2023-03-16T00:22:22;93822.38;;;5.79;74.07
36932;BME280;22847;42.654;23.370;2023-03-16T00:24:48;93822.78;;;5.84;73.66
36932;BME280;22847;42.654;23.370;2023-03-16T00:27:14;93722.78;;;5.18;74.56
36932;BME280;22847;42.654;23.370;2023-03-16T00:29:45;93448.66;;;3.49;72.99
36932;BME280;22847;42.654;23.370;2023-03-16T00:32:13;93640.44;;;4.27;73.96
36932;BME280;22847;42.654;23.370;2023-03-16T00:34:40;93824.78;;;5.33;75.34
36932;BME280;22847;42.654;23.370;2023-03-16T00:37:06;93763.69;;;5.03;74.78
36932;BME280;22847;42.654;23.370;2023-03-16T00:39:31;93885.16;;;5.32;74.91
36932;BME280;22847;42.654;23.370;2023-03-16T00:42:02;93857.16;;;5.27;74.16
36932;BME280;22847;42.654;23.370;2023-03-16T00:44:28;93616.97;;;3.90;74.71
36932;BME280;22847;42.654;23.370;2023-03-16T00:46:54;93789.00;;;5.19;74.86
36932;BME280;22847;42.654;23.370;2023-03-16T00:49:19;93839.81;;;5.58;74.24
36932;BME280;22847;42.654;23.370;2023-03-16T00:51:46;93871.22;;;5.44;74.34
36932;BME280;22847;42.654;23.370;2023-03-16T00:54:12;93659.94;;;4.20;75.15
36932;BME280;22847;42.654;23.370;2023-03-16T00:56:37;93846.25;;;5.24;75.30
36932;BME280;22847;42.654;23.370;2023-03-16T00:59:03;93826.16;;;4.87;76.32
36932;BME280;22847;42.654;23.370;2023-03-16T01:01:30;93844.16;;;4.99;75.62
36932;BME280;22847;42.654;23.370;2023-03-16T01:03:57;93682.94;;;3.92;75.45
36932;BME280;22847;42.654;23.370;2023-03-16T01:06:24;93607.88;;;3.86;74.82
36932;BME280;22847;42.654;23.370;2023-03-16T01:08:50;93859.47;;;5.30;74.57
36932;BME280;22847;42.654;23.370;2023-03-16T01:11:19;93867.06;;;5.13;76.18
36932;BME280;22847;42.654;23.370;2023-03-16T01:13:46;93726.38;;;3.97;75.92
36932;BME280;22847;42.654;23.370;2023-03-16T01:16:11;93608.91;;;3.43;75.71
36932;BME280;22847;42.654;23.370;2023-03-16T01:18:37;93652.47;;;3.46;77.18
36932;BME280;22847;42.654;23.370;2023-03-16T01:21:09;93872.41;;;4.90;76.60
36932;BME280;22847;42.654;23.370;2023-03-16T01:23:38;93673.22;;;4.05;76.08
36932;BME280;22847;42.654;23.370;2023-03-16T01:26:04;93691.09;;;3.97;76.57
36932;BME280;22847;42.654;23.370;2023-03-16T01:28:31;93862.31;;;5.18;76.72
36932;BME280;22847;42.654;23.370;2023-03-16T01:31:03;93859.19;;;5.24;77.03
36932;BME280;22847;42.654;23.370;2023-03-16T01:33:29;93847.91;;;5.25;76.78
36932;BME280;22847;42.654;23.370;2023-03-16T01:35:56;93879.81;;;5.14;77.09
36932;BME280;22847;42.654;23.370;2023-03-16T01:38:22;93836.25;;;5.00;77.26
36932;BME280;22847;42.654;23.370;2023-03-16T01:40:49;93902.84;;;5.17;77.29
36932;BME280;22847;42.654;23.370;2023-03-16T01:43:20;93731.31;;;4.00;77.22
36932;BME280;22847;42.654;23.370;2023-03-16T01:48:40;93851.56;;;5.22;75.65
36932;BME280;22847;42.654;23.370;2023-03-16T01:53:38;93875.22;;;5.18;76.28
36932;BME280;22847;42.654;23.370;2023-03-16T01:56:08;93683.47;;;3.86;76.06
36932;BME280;22847;42.654;23.370;2023-03-16T01:58:34;93857.91;;;4.69;78.36
36932;BME280;22847;42.654;23.370;2023-03-16T02:01:02;93837.72;;;4.83;76.67
36932;BME280;22847;42.654;23.370;2023-03-16T02:03:29;93888.75;;;5.01;76.19
36932;BME280;22847;42.654;23.370;2023-03-16T02:06:03;93912.38;;;5.26;74.93
36932;BME280;22847;42.654;23.370;2023-03-16T02:08:33;93920.03;;;5.37;74.45
36932;BME280;22847;42.654;23.370;2023-03-16T02:10:59;93691.88;;;4.28;73.52
36932;BME280;22847;42.654;23.370;2023-03-16T02:13:25;93888.09;;;5.58;72.93
36932;BME280;22847;42.654;23.370;2023-03-16T02:15:53;93659.53;;;4.05;73.00
36932;BME280;22847;42.654;23.370;2023-03-16T02:18:19;93848.25;;;5.01;73.68
36932;BME280;22847;42.654;23.370;2023-03-16T02:23:16;93928.00;;;5.25;73.90
36932;BME280;22847;42.654;23.370;2023-03-16T02:31:22;93717.03;;;3.75;75.60
36932;BME280;22847;42.654;23.370;2023-03-16T02:33:48;93906.00;;;4.90;76.15
36932;BME280;22847;42.654;23.370;2023-03-16T02:36:17;93701.63;;;3.85;75.58
36932;BME280;22847;42.654;23.370;2023-03-16T02:38:43;93858.28;;;4.64;75.50
36932;BME280;22847;42.654;23.370;2023-03-16T02:41:17;93981.78;;;4.59;77.20
36932;BME280;22847;42.654;23.370;2023-03-16T02:43:47;93786.75;;;4.15;77.10
36932;BME280;22847;42.654;23.370;2023-03-16T02:46:16;93889.38;;;4.83;76.05
36932;BME280;22847;42.654;23.370;2023-03-16T02:48:52;93904.69;;;4.75;76.43
36932;BME280;22847;42.654;23.370;2023-03-16T02:51:19;93927.53;;;5.10;75.40
36932;BME280;22847;42.654;23.370;2023-03-16T02:53:45;93741.50;;;3.81;75.92
36932;BME280;22847;42.654;23.370;2023-03-16T02:56:10;93953.16;;;4.92;76.61
36932;BME280;22847;42.654;23.370;2023-03-16T02:58:36;93927.28;;;4.83;77.35
36932;BME280;22847;42.654;23.370;2023-03-16T03:01:01;93808.97;;;4.07;77.42
36932;BME280;22847;42.654;23.370;2023-03-16T03:03:28;93907.78;;;4.69;77.53
36932;BME280;22847;42.654;23.370;2023-03-16T03:05:53;93935.03;;;4.83;77.57
36932;BME280;22847;42.654;23.370;2023-03-16T03:08:19;93949.53;;;4.74;77.80
36932;BME280;22847;42.654;23.370;2023-03-16T03:10:46;93936.72;;;4.73;77.78
36932;BME280;22847;42.654;23.370;2023-03-16T03:13:11;93975.09;;;4.77;77.45
36932;BME280;22847;42.654;23.370;2023-03-16T03:15:37;93880.63;;;4.24;77.65
36932;BME280;22847;42.654;23.370;2023-03-16T03:18:02;93943.13;;;4.48;78.18
36932;BME280;22847;42.654;23.370;2023-03-16T03:20:28;93941.25;;;4.50;78.42
36932;BME280;22847;42.654;23.370;2023-03-16T03:22:53;93755.75;;;3.23;78.44
36932;BME280;22847;42.654;23.370;2023-03-16T03:25:20;93976.69;;;4.48;78.87
36932;BME280;22847;42.654;23.370;2023-03-16T03:27:48;93581.16;;;2.11;77.88
36932;BME280;22847;42.654;23.370;2023-03-16T03:32:41;93925.75;;;3.97;78.00
36932;BME280;22847;42.654;23.370;2023-03-16T03:35:09;93697.66;;;2.66;79.09
36932;BME280;22847;42.654;23.370;2023-03-16T03:37:37;93938.25;;;4.13;79.52
36932;BME280;22847;42.654;23.370;2023-03-16T03:40:03;93991.88;;;4.30;79.59
36932;BME280;22847;42.654;23.370;2023-03-16T03:42:29;93941.59;;;4.04;78.29
36932;BME280;22847;42.654;23.370;2023-03-16T03:44:55;93953.47;;;4.16;79.90
36932;BME280;22847;42.654;23.370;2023-03-16T03:47:20;93891.84;;;3.49;78.41
36932;BME280;22847;42.654;23.370;2023-03-16T03:49:46;93863.00;;;3.12;80.31
36932;BME280;22847;42.654;23.370;2023-03-16T03:52:11;93919.41;;;3.81;79.12
36932;BME280;22847;42.654;23.370;2023-03-16T03:54:37;93983.59;;;3.95;79.79
36932;BME280;22847;42.654;23.370;2023-03-16T03:57:03;93785.25;;;2.76;78.95
36932;BME280;22847;42.654;23.370;2023-03-16T03:59:28;93997.19;;;3.86;79.45
36932;BME280;22847;42.654;23.370;2023-03-16T04:01:53;93989.09;;;3.90;80.19
36932;BME280;22847;42.654;23.370;2023-03-16T04:04:19;93984.25;;;4.08;78.80
36932;BME280;22847;42.654;23.370;2023-03-16T04:06:45;93752.69;;;2.43;78.57
36932;BME280;22847;42.654;23.370;2023-03-16T04:09:11;93962.66;;;3.66;78.41
36932;BME280;22847;42.654;23.370;2023-03-16T04:14:22;93900.31;;;3.40;77.79
36932;BME280;22847;42.654;23.370;2023-03-16T04:16:47;93748.94;;;1.91;81.16
36932;BME280;22847;42.654;23.370;2023-03-16T04:19:13;93999.78;;;3.75;80.10
36932;BME280;22847;42.654;23.370;2023-03-16T04:21:38;94037.31;;;3.34;81.68
36932;BME280;22847;42.654;23.370;2023-03-16T04:24:03;94001.53;;;3.74;80.45
36932;BME280;22847;42.654;23.370;2023-03-16T04:26:30;94018.09;;;3.60;81.49
36932;BME280;22847;42.654;23.370;2023-03-16T04:28:56;93994.09;;;3.60;81.25
36932;BME280;22847;42.654;23.370;2023-03-16T04:31:22;93843.38;;;2.89;80.04
36932;BME280;22847;42.654;23.370;2023-03-16T04:33:47;93991.06;;;3.33;80.46
36932;BME280;22847;42.654;23.370;2023-03-16T04:36:12;93742.72;;;1.60;80.71
36932;BME280;22847;42.654;23.370;2023-03-16T04:38:38;94048.78;;;3.64;81.08
36932;BME280;22847;42.654;23.370;2023-03-16T04:41:05;94020.56;;;3.62;80.95
36932;BME280;22847;42.654;23.370;2023-03-16T04:43:31;94065.28;;;3.94;80.27
36932;BME280;22847;42.654;23.370;2023-03-16T04:46:00;94027.09;;;3.66;80.71
36932;BME280;22847;42.654;23.370;2023-03-16T04:48:27;94072.78;;;3.97;78.14
36932;BME280;22847;42.654;23.370;2023-03-16T04:50:53;94033.97;;;3.88;78.68
36932;BME280;22847;42.654;23.370;2023-03-16T04:53:19;94029.31;;;3.71;78.30
36932;BME280;22847;42.654;23.370;2023-03-16T04:55:45;94054.72;;;4.09;77.82
36932;BME280;22847;42.654;23.370;2023-03-16T04:58:10;93975.94;;;3.50;78.58
36932;BME280;22847;42.654;23.370;2023-03-16T05:00:38;93806.34;;;2.47;77.84
36932;BME280;22847;42.654;23.370;2023-03-16T05:03:03;94015.03;;;3.67;78.61
36932;BME280;22847;42.654;23.370;2023-03-16T05:05:29;93881.88;;;2.91;78.21
36932;BME280;22847;42.654;23.370;2023-03-16T05:07:55;94052.13;;;4.09;78.37
36932;BME280;22847;42.654;23.370;2023-03-16T05:10:20;94093.44;;;3.86;78.06
36932;BME280;22847;42.654;23.370;2023-03-16T05:12:46;93977.00;;;3.03;79.79
36932;BME280;22847;42.654;23.370;2023-03-16T05:15:12;93806.94;;;2.29;79.25
36932;BME280;22847;42.654;23.370;2023-03-16T05:17:39;94092.59;;;3.86;79.89
36932;BME280;22847;42.654;23.370;2023-03-16T05:20:10;93926.22;;;3.05;78.52
36932;BME280;22847;42.654;23.370;2023-03-16T05:22:39;94066.94;;;3.95;78.45
36932;BME280;22847;42.654;23.370;2023-03-16T05:25:05;94113.47;;;4.05;77.22
36932;BME280;22847;42.654;23.370;2023-03-16T05:27:31;94077.00;;;4.10;77.14
36932;BME280;22847;42.654;23.370;2023-03-16T05:29:56;94086.66;;;4.28;76.46
36932;BME280;22847;42.654;23.370;2023-03-16T05:32:22;94084.41;;;3.81;78.53
36932;BME280;22847;42.654;23.370;2023-03-16T05:34:47;93829.47;;;2.36;77.97
36932;BME280;22847;42.654;23.370;2023-03-16T05:37:12;94076.06;;;3.99;78.12
36932;BME280;22847;42.654;23.370;2023-03-16T05:39:38;94075.50;;;3.51;78.87
36932;BME280;22847;42.654;23.370;2023-03-16T05:42:03;94127.75;;;3.98;78.29
36932;BME280;22847;42.654;23.370;2023-03-16T05:44:30;94054.97;;;3.83;77.00
36932;BME280;22847;42.654;23.370;2023-03-16T05:46:56;94140.28;;;4.14;77.82
36932;BME280;22847;42.654;23.370;2023-03-16T05:49:21;94134.41;;;4.12;78.01
36932;BME280;22847;42.654;23.370;2023-03-16T05:51:47;93808.22;;;2.34;76.55
36932;BME280;22847;42.654;23.370;2023-03-16T05:54:14;94083.44;;;4.04;76.90
36932;BME280;22847;42.654;23.370;2023-03-16T05:56:39;94077.50;;;3.81;77.56
36932;BME280;22847;42.654;23.370;2023-03-16T05:59:05;94113.94;;;3.66;77.30
36932;BME280;22847;42.654;23.370;2023-03-16T06:01:30;94115.44;;;4.13;77.43
36932;BME280;22847;42.654;23.370;2023-03-16T06:03:57;94086.13;;;4.02;77.63
36932;BME280;22847;42.654;23.370;2023-03-16T06:06:23;94113.44;;;4.16;77.17
36932;BME280;22847;42.654;23.370;2023-03-16T06:08:48;93844.34;;;2.33;77.29
36932;BME280;22847;42.654;23.370;2023-03-16T06:11:14;94089.44;;;3.82;77.43
36932;BME280;22847;42.654;23.370;2023-03-16T06:13:39;94167.97;;;4.00;77.89
36932;BME280;22847;42.654;23.370;2023-03-16T06:16:06;94065.53;;;3.47;78.47
36932;BME280;22847;42.654;23.370;2023-03-16T06:18:34;94126.34;;;3.83;78.68
36932;BME280;22847;42.654;23.370;2023-03-16T06:21:00;94176.88;;;4.08;78.12
36932;BME280;22847;42.654;23.370;2023-03-16T06:23:25;94093.91;;;3.91;77.26
36932;BME280;22847;42.654;23.370;2023-03-16T06:25:51;94146.13;;;4.27;77.25
36932;BME280;22847;42.654;23.370;2023-03-16T06:28:19;94144.03;;;4.21;77.11
36932;BME280;22847;42.654;23.370;2023-03-16T06:30:45;93962.50;;;2.69;78.46
36932;BME280;22847;42.654;23.370;2023-03-16T06:33:10;94126.69;;;3.78;78.78
36932;BME280;22847;42.654;23.370;2023-03-16T06:35:36;94159.28;;;4.13;77.84
36932;BME280;22847;42.654;23.370;2023-03-16T06:38:01;93937.69;;;2.79;77.65
36932;BME280;22847;42.654;23.370;2023-03-16T06:40:27;94172.44;;;4.10;77.21
36932;BME280;22847;42.654;23.370;2023-03-16T06:42:52;94171.91;;;4.38;76.83
36932;BME280;22847;42.654;23.370;2023-03-16T06:45:17;94135.78;;;4.38;75.16
36932;BME280;22847;42.654;23.370;2023-03-16T06:47:46;93952.66;;;3.07;75.14
36932;BME280;22847;42.654;23.370;2023-03-16T06:50:12;94099.66;;;3.73;75.27
36932;BME280;22847;42.654;23.370;2023-03-16T06:52:38;94183.88;;;4.50;74.68
36932;BME280;22847;42.654;23.370;2023-03-16T06:55:04;94196.66;;;4.52;74.93
36932;BME280;22847;42.654;23.370;2023-03-16T06:57:30;94189.25;;;4.47;73.03
36932;BME280;22847;42.654;23.370;2023-03-16T06:59:55;93835.44;;;2.37;72.58
36932;BME280;22847;42.654;23.370;2023-03-16T07:02:21;94230.09;;;4.53;73.73
36932;BME280;22847;42.654;23.370;2023-03-16T07:04:48;94153.47;;;4.54;73.15
36932;BME280;22847;42.654;23.370;2023-03-16T07:07:13;94197.22;;;4.55;72.30
36932;BME280;22847;42.654;23.370;2023-03-16T07:09:39;94146.47;;;4.33;71.64
36932;BME280;22847;42.654;23.370;2023-03-16T07:12:04;94214.25;;;4.24;72.56
36932;BME280;22847;42.654;23.370;2023-03-16T07:14:30;94190.00;;;4.16;73.08
36932;BME280;22847;42.654;23.370;2023-03-16T07:16:56;94206.28;;;4.38;73.13
36932;BME280;22847;42.654;23.370;2023-03-16T07:19:21;93955.25;;;2.74;73.50
36932;BME280;22847;42.654;23.370;2023-03-16T07:21:47;94153.91;;;3.93;73.33
36932;BME280;22847;42.654;23.370;2023-03-16T07:24:13;94088.28;;;3.42;72.87
36932;BME280;22847;42.654;23.370;2023-03-16T07:26:39;94212.63;;;4.45;72.92
36932;BME280;22847;42.654;23.370;2023-03-16T07:29:05;94211.66;;;4.46;73.12
36932;BME280;22847;42.654;23.370;2023-03-16T07:31:31;94218.38;;;4.49;73.62
36932;BME280;22847;42.654;23.370;2023-03-16T07:33:57;94235.69;;;4.69;73.70
36932;BME280;22847;42.654;23.370;2023-03-16T07:36:22;94208.84;;;4.61;74.03
36932;BME280;22847;42.654;23.370;2023-03-16T07:38:48;94240.63;;;4.61;74.44
36932;BME280;22847;42.654;23.370;2023-03-16T07:41:13;94220.09;;;4.60;74.56
36932;BME280;22847;42.654;23.370;2023-03-16T07:43:39;94044.56;;;3.63;74.44
36932;BME280;22847;42.654;23.370;2023-03-16T07:46:04;94209.91;;;4.47;73.55
36932;BME280;22847;42.654;23.370;2023-03-16T07:48:30;94181.75;;;4.33;74.38
36932;BME280;22847;42.654;23.370;2023-03-16T07:50:56;94241.72;;;4.59;74.70
36932;BME280;22847;42.654;23.370;2023-03-16T07:53:22;94222.63;;;4.82;72.99
36932;BME280;22847;42.654;23.370;2023-03-16T07:55:47;94242.47;;;4.92;72.69
36932;BME280;22847;42.654;23.370;2023-03-16T07:58:13;94251.84;;;4.93;72.28
36932;BME280;22847;42.654;23.370;2023-03-16T08:00:38;94237.25;;;4.49;72.78
36932;BME280;22847;42.654;23.370;2023-03-16T08:03:05;94210.25;;;4.54;72.30
36932;BME280;22847;42.654;23.370;2023-03-16T08:05:30;94194.06;;;4.63;71.82
36932;BME280;22847;42.654;23.370;2023-03-16T08:07:59;94020.22;;;3.44;71.69
36932;BME280;22847;42.654;23.370;2023-03-16T08:10:28;94286.94;;;5.07;71.93
36932;BME280;22847;42.654;23.370;2023-03-16T08:12:53;94205.28;;;4.73;71.02
36932;BME280;22847;42.654;23.370;2023-03-16T08:15:18;94271.22;;;4.88;71.06
36932;BME280;22847;42.654;23.370;2023-03-16T08:17:44;94009.69;;;3.36;71.91
36932;BME280;22847;42.654;23.370;2023-03-16T08:20:10;94041.19;;;3.73;71.07
36932;BME280;22847;42.654;23.370;2023-03-16T08:22:39;94293.34;;;5.24;71.03
36932;BME280;22847;42.654;23.370;2023-03-16T08:25:06;94067.41;;;3.89;71.94
36932;BME280;22847;42.654;23.370;2023-03-16T08:27:35;94128.66;;;4.30;71.44
36932;BME280;22847;42.654;23.370;2023-03-16T08:30:03;94282.75;;;5.27;71.13
36932;BME280;22847;42.654;23.370;2023-03-16T08:32:31;94245.72;;;5.06;71.68
36932;BME280;22847;42.654;23.370;2023-03-16T08:34:56;94279.00;;;5.31;71.69
36932;BME280;22847;42.654;23.370;2023-03-16T08:37:22;94271.63;;;5.26;72.06
36932;BME280;22847;42.654;23.370;2023-03-16T08:39:48;94140.31;;;4.57;70.65
36932;BME280;22847;42.654;23.370;2023-03-16T08:42:15;94266.47;;;5.15;71.29
36932;BME280;22847;42.654;23.370;2023-03-16T08:44:41;94273.00;;;5.30;70.64
36932;BME280;22847;42.654;23.370;2023-03-16T08:47:08;94289.09;;;5.34;71.11
36932;BME280;22847;42.654;23.370;2023-03-16T08:49:34;94087.69;;;4.37;70.81
36932;BME280;22847;42.654;23.370;2023-03-16T08:52:01;94081.84;;;4.35;69.84
36932;BME280;22847;42.654;23.370;2023-03-16T08:54:26;94293.69;;;5.62;69.03
36932;BME280;22847;42.654;23.370;2023-03-16T08:56:51;94209.91;;;5.01;69.96
36932;BME280;22847;42.654;23.370;2023-03-16T08:59:17;94299.91;;;5.60;68.45
36932;BME280;22847;42.654;23.370;2023-03-16T09:01:42;94295.00;;;5.25;69.89
36932;BME280;22847;42.654;23.370;2023-03-16T09:04:08;94080.53;;;3.86;69.82
36932;BME280;22847;42.654;23.370;2023-03-16T09:06:33;94095.69;;;4.34;69.89
36932;BME280;22847;42.654;23.370;2023-03-16T09:09:00;94268.44;;;5.55;68.86
36932;BME280;22847;42.654;23.370;2023-03-16T09:11:25;94304.44;;;5.78;67.75
36932;BME280;22847;42.654;23.370;2023-03-16T09:13:54;94082.56;;;4.15;67.77
36932;BME280;22847;42.654;23.370;2023-03-16T09:16:21;94310.41;;;5.58;68.24
36932;BME280;22847;42.654;23.370;2023-03-16T09:18:50;94294.94;;;5.36;68.18
36932;BME280;22847;42.654;23.370;2023-03-16T09:21:15;94255.78;;;5.20;67.69
36932;BME280;22847;42.654;23.370;2023-03-16T09:23:41;94307.72;;;5.17;68.25
36932;BME280;22847;42.654;23.370;2023-03-16T09:26:07;94094.81;;;4.01;68.46
36932;BME280;22847;42.654;23.370;2023-03-16T09:28:35;94314.44;;;5.08;69.03
36932;BME280;22847;42.654;23.370;2023-03-16T09:31:02;94255.53;;;4.80;68.74
36932;BME280;22847;42.654;23.370;2023-03-16T09:33:29;94231.09;;;4.84;68.50
36932;BME280;22847;42.654;23.370;2023-03-16T09:35:56;94255.44;;;4.48;69.63
36932;BME280;22847;42.654;23.370;2023-03-16T09:38:23;94315.47;;;5.17;69.32
36932;BME280;22847;42.654;23.370;2023-03-16T09:40:57;94206.03;;;4.64;69.38
36932;BME280;22847;42.654;23.370;2023-03-16T09:48:57;94160.53;;;4.40;68.88
36932;BME280;22847;42.654;23.370;2023-03-16T09:51:35;94345.25;;;5.75;68.53
36932;BME280;22847;42.654;23.370;2023-03-16T09:54:02;94291.59;;;5.56;67.28
36932;BME280;22847;42.654;23.370;2023-03-16T09:56:35;94297.47;;;5.58;66.39
36932;BME280;22847;42.654;23.370;2023-03-16T09:59:11;94281.44;;;5.44;66.02
36932;BME280;22847;42.654;23.370;2023-03-16T10:05:08;94109.56;;;4.22;67.93
36932;BME280;22847;42.654;23.370;2023-03-16T10:07:17;94325.66;;;5.61;67.95
36932;BME280;22847;42.654;23.370;2023-03-16T10:10:15;94146.69;;;4.41;68.35
36932;BME280;22847;42.654;23.370;2023-03-16T10:12:47;94354.75;;;5.31;69.43
36932;BME280;22847;42.654;23.370;2023-03-16T10:15:21;94197.81;;;4.59;69.74
36932;BME280;22847;42.654;23.370;2023-03-16T10:18:14;94332.81;;;5.26;70.07
36932;BME280;22847;42.654;23.370;2023-03-16T10:20:37;94370.09;;;5.55;69.07
36932;BME280;22847;42.654;23.370;2023-03-16T10:23:23;94325.38;;;5.75;67.59
36932;BME280;22847;42.654;23.370;2023-03-16T10:25:53;94297.03;;;5.53;67.24
36932;BME280;22847;42.654;23.370;2023-03-16T10:28:22;94333.63;;;5.69;67.96
36932;BME280;22847;42.654;23.370;2023-03-16T10:30:50;94111.63;;;4.39;68.61
36932;BME280;22847;42.654;23.370;2023-03-16T10:33:30;94316.59;;;5.67;66.92
36932;BME280;22847;42.654;23.370;2023-03-16T10:38:58;94335.66;;;5.98;65.53
36932;BME280;22847;42.654;23.370;2023-03-16T10:46:42;94132.31;;;4.60;66.82
36932;BME280;22847;42.654;23.370;2023-03-16T10:49:24;94111.16;;;4.34;68.13
36932;BME280;22847;42.654;23.370;2023-03-16T10:51:52;94287.34;;;5.55;66.94
36932;BME280;22847;42.654;23.370;2023-03-16T10:54:31;94095.22;;;4.72;68.11
36932;BME280;22847;42.654;23.370;2023-03-16T10:56:58;94309.72;;;5.88;65.56
36932;BME280;22847;42.654;23.370;2023-03-16T10:59:32;94331.16;;;6.00;66.57
36932;BME280;22847;42.654;23.370;2023-03-16T11:02:14;94212.59;;;5.31;65.69
36932;BME280;22847;42.654;23.370;2023-03-16T11:04:40;94099.94;;;4.56;65.67
36932;BME280;22847;42.654;23.370;2023-03-16T11:07:07;94302.50;;;5.92;66.34
36932;BME280;22847;42.654;23.370;2023-03-16T11:09:39;94337.88;;;6.02;64.93
36932;BME280;22847;42.654;23.370;2023-03-16T11:12:22;94321.97;;;6.07;64.43
36932;BME280;22847;42.654;23.370;2023-03-16T11:14:48;94286.56;;;6.07;63.82
36932;BME280;22847;42.654;23.370;2023-03-16T11:17:18;94326.31;;;6.27;63.49
36932;BME280;22847;42.654;23.370;2023-03-16T11:19:53;94334.72;;;6.19;64.11
36932;BME280;22847;42.654;23.370;2023-03-16T11:22:22;94132.56;;;4.88;63.63
36932;BME280;22847;42.654;23.370;2023-03-16T11:30:39;94112.81;;;4.99;62.81
36932;BME280;22847;42.654;23.370;2023-03-16T11:33:10;94359.31;;;6.14;62.98
36932;BME280;22847;42.654;23.370;2023-03-16T11:35:42;94368.38;;;6.19;63.55
36932;BME280;22847;42.654;23.370;2023-03-16T11:38:28;94363.97;;;5.99;63.90
36932;BME280;22847;42.654;23.370;2023-03-16T11:40:59;94282.91;;;5.78;62.73
36932;BME280;22847;42.654;23.370;2023-03-16T11:46:24;94331.50;;;6.06;63.20
36932;BME280;22847;42.654;23.370;2023-03-16T11:52:07;94332.91;;;5.99;63.69
36932;BME280;22847;42.654;23.370;2023-03-16T11:55:00;94339.34;;;5.84;64.13
36932;BME280;22847;42.654;23.370;2023-03-16T11:57:48;94334.34;;;5.71;65.55
36932;BME280;22847;42.654;23.370;2023-03-16T12:00:39;94337.69;;;5.83;64.22
36932;BME280;22847;42.654;23.370;2023-03-16T12:05:59;94274.72;;;5.41;63.72
36932;BME280;22847;42.654;23.370;2023-03-16T12:08:40;94344.63;;;5.82;64.36
36932;BME280;22847;42.654;23.370;2023-03-16T12:16:44;94313.63;;;5.39;65.06
36932;BME280;22847;42.654;23.370;2023-03-16T12:19:18;94345.84;;;5.35;65.49
36932;BME280;22847;42.654;23.370;2023-03-16T12:21:56;94404.66;;;5.54;64.66
36932;BME280;22847;42.654;23.370;2023-03-16T12:24:27;94102.91;;;3.75;65.64
36932;BME280;22847;42.654;23.370;2023-03-16T12:26:53;94110.75;;;3.84;65.89
36932;BME280;22847;42.654;23.370;2023-03-16T12:29:40;94342.91;;;5.29;66.39
36932;BME280;22847;42.654;23.370;2023-03-16T12:32:11;94397.72;;;5.66;64.53
36932;BME280;22847;42.654;23.370;2023-03-16T12:48:59;94356.56;;;5.31;65.19
36932;BME280;22847;42.654;23.370;2023-03-16T12:51:37;94104.56;;;3.76;66.36
36932;BME280;22847;42.654;23.370;2023-03-16T12:54:04;94422.25;;;5.17;66.59
36932;BME280;22847;42.654;23.370;2023-03-16T12:56:34;94381.97;;;5.04;67.27
36932;BME280;22847;42.654;23.370;2023-03-16T12:59:03;94192.94;;;3.78;68.40
36932;BME280;22847;42.654;23.370;2023-03-16T13:01:40;94420.00;;;5.13;68.87
36932;BME280;22847;42.654;23.370;2023-03-16T13:04:11;94388.16;;;5.34;69.00
36932;BME280;22847;42.654;23.370;2023-03-16T13:06:42;94396.00;;;5.33;69.42
36932;BME280;22847;42.654;23.370;2023-03-16T13:09:10;94402.16;;;4.99;71.13
36932;BME280;22847;42.654;23.370;2023-03-16T13:11:54;94358.81;;;4.58;72.08
36932;BME280;22847;42.654;23.370;2023-03-16T13:17:04;94404.00;;;4.74;73.77
36932;BME280;22847;42.654;23.370;2023-03-16T13:19:30;94387.00;;;4.72;73.55
36932;BME280;22847;42.654;23.370;2023-03-16T13:22:17;94447.38;;;5.04;72.96
36932;BME280;22847;42.654;23.370;2023-03-16T13:24:52;94377.59;;;4.60;73.46
36932;BME280;22847;42.654;23.370;2023-03-16T13:27:20;94258.81;;;3.93;73.73
36932;BME280;22847;42.654;23.370;2023-03-16T13:29:56;94417.44;;;4.90;74.22
36932;BME280;22847;42.654;23.370;2023-03-16T13:32:23;94196.84;;;3.48;75.29
36932;BME280;22847;42.654;23.370;2023-03-16T13:34:56;94459.56;;;5.02;74.18
36932;BME280;22847;42.654;23.370;2023-03-16T13:37:23;94422.25;;;4.95;74.46
36932;BME280;22847;42.654;23.370;2023-03-16T13:39:56;94425.41;;;5.21;73.84
36932;BME280;22847;42.654;23.370;2023-03-16T13:42:23;94395.69;;;5.04;73.57
36932;BME280;22847;42.654;23.370;2023-03-16T13:44:56;94431.38;;;5.44;72.36
36932;BME280;22847;42.654;23.370;2023-03-16T13:47:24;94383.22;;;5.09;72.96
36932;BME280;22847;42.654;23.370;2023-03-16T13:49:55;94457.34;;;5.42;72.63
36932;BME280;22847;42.654;23.370;2023-03-16T13:52:33;94423.47;;;5.56;72.49
36932;BME280;22847;42.654;23.370;2023-03-16T13:55:01;94441.56;;;5.56;72.88
36932;BME280;22847;42.654;23.370;2023-03-16T13:57:29;94382.97;;;5.23;72.25
36932;BME280;22847;42.654;23.370;2023-03-16T14:02:44;94430.97;;;5.70;71.93
36932;BME280;22847;42.654;23.370;2023-03-16T14:05:17;94443.22;;;5.57;71.39
36932;BME280;22847;42.654;23.370;2023-03-16T14:07:49;94469.06;;;5.79;70.25
36932;BME280;22847;42.654;23.370;2023-03-16T14:10:15;94444.53;;;5.63;72.39
36932;BME280;22847;42.654;23.370;2023-03-16T14:15:16;94480.50;;;5.44;70.69
36932;BME280;22847;42.654;23.370;2023-03-16T14:17:43;93783.34;;;1.20;69.99
36932;BME280;22847;42.654;23.370;2023-03-16T14:20:17;94406.38;;;5.11;69.99
36932;BME280;22847;42.654;23.370;2023-03-16T14:22:43;94447.72;;;5.11;70.73